createdAt,value
2022-10-18T00:01:45.791Z,102529.28
2022-10-18T00:06:54.025Z,102540.88
2022-10-18T00:11:58.353Z,102544.38
2022-10-18T00:17:00.032Z,102549.09
2022-10-18T00:22:04.286Z,102540.16
2022-10-18T00:27:05.980Z,102543.56
2022-10-18T00:32:12.341Z,102556.03
2022-10-18T00:37:18.649Z,102562.91
2022-10-18T00:42:33.008Z,102557.38
2022-10-18T00:47:38.252Z,102547.31
2022-10-18T00:52:43.008Z,102559.06
2022-10-18T00:57:46.447Z,102575.34
2022-10-18T01:02:50.484Z,102573.81
2022-10-18T01:07:57.528Z,102567.59
2022-10-18T01:13:26.409Z,102567.59
2022-10-18T01:18:34.666Z,102563.06
2022-10-18T01:24:08.884Z,102572.84
2022-10-18T01:29:31.880Z,102571.13
2022-10-18T01:34:38.464Z,102570.28
2022-10-18T01:39:42.369Z,102572.16
2022-10-18T01:44:47.301Z,102577.34
2022-10-18T01:50:00.653Z,102572.31
2022-10-18T01:55:09.552Z,102571.72
2022-10-18T02:00:19.853Z,102567.84
2022-10-18T02:05:53.861Z,102571.03
2022-10-18T02:11:10.522Z,102559.72
2022-10-18T02:16:19.294Z,102563.44
2022-10-18T02:21:21.555Z,102564.56
2022-10-18T02:26:26.494Z,102556.34
2022-10-18T02:31:39.994Z,102564.44
2022-10-18T02:36:59.741Z,102557.19
2022-10-18T02:42:06.974Z,102563.44
2022-10-18T02:47:15.118Z,102565.81
2022-10-18T02:52:21.608Z,102554.22
2022-10-18T02:57:26.682Z,102565.66
2022-10-18T03:02:28.363Z,102571.88
2022-10-18T03:07:32.667Z,102570.00
2022-10-18T03:12:36.595Z,102572.84
2022-10-18T03:17:42.981Z,102587.31
2022-10-18T03:22:49.042Z,102568.47
2022-10-18T03:27:51.284Z,102573.19
2022-10-18T03:33:00.012Z,102570.63
2022-10-18T03:38:07.767Z,102570.97
2022-10-18T03:43:10.311Z,102562.22
2022-10-18T03:48:14.428Z,102571.44
2022-10-18T03:53:18.331Z,102571.59
2022-10-18T03:58:27.073Z,102570.91
2022-10-18T04:03:28.774Z,102571.59
2022-10-18T04:08:30.594Z,102554.09
2022-10-18T04:13:34.796Z,102551.59
2022-10-18T04:18:36.471Z,102557.94
2022-10-18T04:23:38.976Z,102566.16
2022-10-18T04:28:40.975Z,102570.00
2022-10-18T04:33:42.705Z,102563.94
2022-10-18T04:38:49.761Z,102552.50
2022-10-18T04:43:54.511Z,102550.16
2022-10-18T04:49:01.588Z,102560.34
2022-10-18T04:54:06.171Z,102573.41
2022-10-18T04:59:08.901Z,102576.91
2022-10-18T05:04:11.513Z,102569.94
2022-10-18T05:09:18.631Z,102562.00
2022-10-18T05:14:22.571Z,102567.97
2022-10-18T05:19:31.264Z,102564.94
2022-10-18T05:24:37.440Z,102561.69
2022-10-18T05:29:39.209Z,102561.31
2022-10-18T05:34:42.996Z,102563.31
2022-10-18T05:39:47.254Z,102561.94
2022-10-18T05:44:51.553Z,102557.59
2022-10-18T05:49:55.455Z,102568.63
2022-10-18T05:54:59.774Z,102569.44
2022-10-18T06:00:05.235Z,102572.00
2022-10-18T06:05:18.939Z,102592.41
2022-10-18T06:10:22.781Z,102591.72
2022-10-18T06:15:27.064Z,102591.84
2022-10-18T06:20:33.372Z,102605.97
2022-10-18T06:25:37.418Z,102611.22
2022-10-18T06:30:44.587Z,102605.84
2022-10-18T06:36:02.480Z,102601.91
2022-10-18T06:41:05.377Z,102598.00
2022-10-18T06:46:11.752Z,102607.50
2022-10-18T06:51:15.728Z,102584.50
2022-10-18T06:56:22.291Z,102599.22
2022-10-18T07:01:32.437Z,102587.91
2022-10-18T07:06:34.373Z,102602.22
2022-10-18T07:11:36.205Z,102618.22
2022-10-18T07:16:42.164Z,102631.97
2022-10-18T07:21:43.920Z,102646.09
2022-10-18T07:26:47.897Z,102650.06
2022-10-18T07:31:53.932Z,102647.84
2022-10-18T07:36:57.974Z,102658.41
2022-10-18T07:42:01.868Z,102657.13
2022-10-18T07:47:07.846Z,102660.34
2022-10-18T07:52:12.068Z,102663.28
2022-10-18T07:57:16.141Z,102683.00
2022-10-18T08:02:17.910Z,102672.38
2022-10-18T08:07:26.009Z,102669.25
2022-10-18T08:12:27.853Z,102676.72
2022-10-18T08:17:34.770Z,102675.03
2022-10-18T08:22:39.028Z,102699.94
2022-10-18T08:27:42.851Z,102690.25
2022-10-18T08:32:51.806Z,102693.25
2022-10-18T08:37:54.206Z,102708.59
2022-10-18T08:43:03.340Z,102688.41
2022-10-18T08:48:09.187Z,102700.94
2022-10-18T08:53:22.145Z,102714.44
2022-10-18T08:58:26.762Z,102708.22
2022-10-18T09:03:50.656Z,102713.00
2022-10-18T09:09:01.867Z,102702.34
2022-10-18T09:14:28.340Z,102697.38
2022-10-18T09:19:29.994Z,102716.19
2022-10-18T09:24:40.781Z,102712.28
2022-10-18T09:29:57.491Z,102713.69
2022-10-18T09:35:27.168Z,102718.69
2022-10-18T09:40:34.018Z,102718.22
2022-10-18T09:45:39.379Z,102711.84
2022-10-18T09:51:12.174Z,102715.78
2022-10-18T09:56:26.725Z,102719.06
2022-10-18T10:01:32.262Z,102720.63
2022-10-18T10:06:39.432Z,102728.72
2022-10-18T10:11:47.554Z,102734.22
2022-10-18T10:16:56.105Z,102735.75
2022-10-18T10:22:06.780Z,102737.81
2022-10-18T10:27:17.170Z,102737.16
2022-10-18T10:32:21.165Z,102741.69
2022-10-18T10:37:35.437Z,102751.13
2022-10-18T10:42:38.923Z,102743.34
2022-10-18T10:47:43.026Z,102744.81
2022-10-18T10:52:47.290Z,102732.66
2022-10-18T10:57:52.444Z,102747.84
2022-10-18T11:03:27.813Z,102763.59
2022-10-18T11:08:41.676Z,102761.34
2022-10-18T11:19:49.180Z,102753.06
2022-10-18T11:24:53.318Z,102756.50
2022-10-18T11:30:23.480Z,102750.22
2022-10-18T11:35:43.637Z,102758.97
2022-10-18T11:41:22.592Z,102767.81
2022-10-18T11:46:49.013Z,102775.25
2022-10-18T11:52:09.158Z,102769.75
2022-10-18T11:57:20.102Z,102774.22
2022-10-18T12:02:44.535Z,102770.38
2022-10-18T12:07:55.711Z,102781.66
2022-10-18T12:13:02.083Z,102774.09
2022-10-18T12:18:11.740Z,102767.13
2022-10-18T12:23:20.608Z,102762.06
2022-10-18T12:28:44.562Z,102762.38
2022-10-18T12:33:53.458Z,102778.28
2022-10-18T12:39:03.827Z,102758.75
2022-10-18T12:44:06.972Z,102771.06
2022-10-18T12:49:14.851Z,102764.16
2022-10-18T12:54:25.415Z,102761.19
2022-10-18T12:59:28.093Z,102765.00
2022-10-18T13:04:33.518Z,102762.84
2022-10-18T13:09:37.225Z,102765.34
2022-10-18T13:15:24.690Z,102769.69
2022-10-18T13:20:54.426Z,102768.22
2022-10-18T13:26:15.918Z,102775.09
2022-10-18T13:31:37.603Z,102778.19
2022-10-18T13:36:42.378Z,102785.19
2022-10-18T13:41:46.751Z,102775.88
2022-10-18T13:46:53.267Z,102779.03
2022-10-18T13:52:37.288Z,102781.81
2022-10-18T13:58:06.281Z,102791.44
2022-10-18T14:03:54.975Z,102791.50
2022-10-18T14:09:13.770Z,102795.38
2022-10-18T14:14:46.008Z,102801.31
2022-10-18T14:19:57.890Z,102794.78
2022-10-18T14:25:17.382Z,102806.72
2022-10-18T14:30:20.928Z,102808.13
2022-10-18T14:35:32.964Z,102810.41
2022-10-18T14:40:38.944Z,102807.81
2022-10-18T14:45:45.070Z,102805.38
2022-10-18T14:50:59.195Z,102803.09
2022-10-18T14:56:05.269Z,102813.16
2022-10-18T15:01:07.103Z,102803.84
2022-10-18T15:06:19.184Z,102799.22
2022-10-18T15:11:21.146Z,102803.16
2022-10-18T15:16:28.281Z,102799.03
2022-10-18T15:21:32.728Z,102803.66
2022-10-18T15:26:34.528Z,102801.47
2022-10-18T15:31:37.655Z,102803.69
2022-10-18T15:41:46.141Z,102798.88
2022-10-18T15:47:20.288Z,102792.75
2022-10-18T15:52:22.194Z,102789.56
2022-10-18T15:57:29.126Z,102790.75
2022-10-18T16:02:38.106Z,102788.56
2022-10-18T16:07:42.004Z,102787.22
2022-10-18T16:12:43.907Z,102790.94
2022-10-18T16:17:53.802Z,102782.66
2022-10-18T16:22:55.683Z,102803.06
2022-10-18T16:28:00.051Z,102804.22
2022-10-18T16:33:04.977Z,102797.28
2022-10-18T16:38:11.640Z,102809.94
2022-10-18T16:43:18.402Z,102796.78
2022-10-18T16:48:22.673Z,102801.00
2022-10-18T16:53:26.113Z,102808.38
2022-10-18T16:58:33.008Z,102803.47
2022-10-18T17:03:38.550Z,102817.94
2022-10-18T17:08:43.125Z,102829.97
2022-10-18T17:13:50.861Z,102828.22
2022-10-18T17:18:52.834Z,102827.88
2022-10-18T17:24:00.441Z,102837.59
2022-10-18T17:29:09.961Z,102840.78
2022-10-18T17:34:12.679Z,102844.38
2022-10-18T17:39:19.795Z,102848.28
2022-10-18T17:44:22.341Z,102851.63
2022-10-18T17:49:24.602Z,102852.94
2022-10-18T17:54:26.368Z,102865.03
2022-10-18T17:59:29.073Z,102852.38
2022-10-18T18:04:30.790Z,102855.22
2022-10-18T18:09:32.569Z,102844.94
2022-10-18T18:14:34.521Z,102844.25
2022-10-18T18:19:36.561Z,102850.81
2022-10-18T18:24:41.178Z,102861.72
2022-10-18T18:29:43.946Z,102872.50
2022-10-18T18:34:48.202Z,102871.25
2022-10-18T18:39:50.813Z,102870.91
2022-10-18T18:44:52.973Z,102866.75
2022-10-18T18:49:55.827Z,102876.00
2022-10-18T18:54:57.666Z,102880.00
2022-10-18T19:00:01.610Z,102895.78
2022-10-18T19:05:03.768Z,102895.47
2022-10-18T19:10:06.917Z,102897.69
2022-10-18T19:15:10.076Z,102899.31
2022-10-18T19:20:15.198Z,102900.47
2022-10-18T19:25:17.030Z,102902.38
2022-10-18T19:30:22.407Z,102902.94
2022-10-18T19:35:26.484Z,102904.94
2022-10-18T19:40:28.295Z,102911.47
2022-10-18T19:45:32.739Z,102913.63
2022-10-18T19:50:38.140Z,102923.25
2022-10-18T19:55:39.923Z,102921.63
2022-10-18T20:00:44.687Z,102915.03
2022-10-18T20:05:57.940Z,102919.19
2022-10-18T20:11:11.521Z,102917.41
2022-10-18T20:16:18.854Z,102918.69
2022-10-18T20:21:20.584Z,102920.09
2022-10-18T20:26:25.441Z,102918.41
2022-10-18T20:31:32.414Z,102904.84
2022-10-18T20:36:36.296Z,102900.38
2022-10-18T20:41:42.771Z,102912.81
2022-10-18T20:46:44.557Z,102916.53
2022-10-18T20:51:47.282Z,102913.09
2022-10-18T20:56:55.888Z,102918.59
2022-10-18T21:02:06.415Z,102931.72
2022-10-18T21:07:08.119Z,102936.25
2022-10-18T21:12:13.281Z,102925.94
2022-10-18T21:17:14.995Z,102938.69
2022-10-18T21:22:21.139Z,102933.88
2022-10-18T21:27:23.862Z,102927.00
2022-10-18T21:32:25.527Z,102934.75
2022-10-18T21:37:31.830Z,102929.50
2022-10-18T21:42:36.556Z,102934.88
2022-10-18T21:47:40.709Z,102921.88
2022-10-18T21:52:45.420Z,102926.84
2022-10-18T21:57:51.861Z,102913.03
2022-10-18T22:03:09.586Z,102910.47
2022-10-18T22:08:12.292Z,102908.34
2022-10-18T22:13:16.049Z,102909.31
2022-10-18T22:18:19.913Z,102904.66
2022-10-18T22:23:33.692Z,102904.09
2022-10-18T22:28:36.219Z,102892.38
2022-10-18T22:33:38.689Z,102888.00
2022-10-18T22:38:45.728Z,102892.38
2022-10-18T22:43:53.037Z,102877.25
2022-10-18T22:48:57.977Z,102898.72
2022-10-18T22:54:02.047Z,102889.44
2022-10-18T22:59:05.802Z,102886.88
2022-10-18T23:04:12.704Z,102883.47
2022-10-18T23:09:16.864Z,102885.03
2022-10-18T23:14:19.010Z,102882.09
2022-10-18T23:19:22.694Z,102889.44
2022-10-18T23:24:24.525Z,102894.19
2022-10-18T23:29:28.545Z,102890.81
2022-10-18T23:34:32.722Z,102887.97
2022-10-18T23:39:37.182Z,102884.31
2022-10-18T23:44:43.520Z,102893.91
2022-10-18T23:49:53.216Z,102893.22
2022-10-18T23:54:57.234Z,102900.72
